createdAt,value
2019-05-17T00:00:37.436Z,35.70
2019-05-17T00:03:23.868Z,35.70
2019-05-17T00:06:10.392Z,35.80
2019-05-17T00:08:56.608Z,35.80
2019-05-17T00:11:43.067Z,35.90
2019-05-17T00:14:29.475Z,35.90
2019-05-17T00:17:17.428Z,35.60
2019-05-17T00:20:06.281Z,35.80
2019-05-17T00:22:52.376Z,35.80
2019-05-17T00:25:39.096Z,35.90
2019-05-17T00:28:26.969Z,35.70
2019-05-17T00:31:13.402Z,35.50
2019-05-17T00:33:59.865Z,35.80
2019-05-17T00:36:46.890Z,35.70
2019-05-17T00:39:36.645Z,35.80
2019-05-17T00:42:22.577Z,35.80
2019-05-17T00:45:09.712Z,35.50
2019-05-17T00:47:57.239Z,35.80
2019-05-17T00:50:44.263Z,36.10
2019-05-17T00:53:30.615Z,35.90
2019-05-17T00:56:17.228Z,35.90
2019-05-17T00:59:03.791Z,36.00
2019-05-17T01:01:50.339Z,36.10
2019-05-17T01:04:37.038Z,35.90
2019-05-17T01:07:23.679Z,36.00
2019-05-17T01:10:10.918Z,36.00
2019-05-17T01:12:57.517Z,36.00
2019-05-17T01:15:44.025Z,35.90
2019-05-17T01:18:30.608Z,35.70
2019-05-17T01:21:18.195Z,35.90
2019-05-17T01:24:06.665Z,35.90
2019-05-17T01:26:52.447Z,36.00
2019-05-17T01:29:39.825Z,36.20
2019-05-17T01:32:26.679Z,36.20
2019-05-17T01:35:16.515Z,36.30
2019-05-17T01:38:02.292Z,36.70
2019-05-17T01:40:48.695Z,36.20
2019-05-17T01:43:36.804Z,36.10
2019-05-17T01:46:23.228Z,36.30
2019-05-17T01:49:09.387Z,36.20
2019-05-17T01:51:56.837Z,36.40
2019-05-17T01:54:46.775Z,36.30
2019-05-17T01:57:33.388Z,36.40
2019-05-17T02:00:20.982Z,36.60
2019-05-17T02:03:07.485Z,36.50
2019-05-17T02:05:56.441Z,36.40
2019-05-17T02:08:41.658Z,36.40
2019-05-17T02:11:28.012Z,36.40
2019-05-17T02:14:16.569Z,36.70
2019-05-17T02:17:02.480Z,36.60
2019-05-17T02:19:48.905Z,36.60
2019-05-17T02:22:36.730Z,36.60
2019-05-17T02:25:23.196Z,36.60
2019-05-17T02:28:12.100Z,36.60
2019-05-17T02:30:59.285Z,36.60
2019-05-17T02:33:45.782Z,36.70
2019-05-17T02:36:33.301Z,36.50
2019-05-17T02:39:22.965Z,36.60
2019-05-17T02:42:08.140Z,36.70
2019-05-17T02:44:54.203Z,36.80
2019-05-17T02:47:43.709Z,36.20
2019-05-17T02:50:28.883Z,36.30
2019-05-17T02:53:15.289Z,36.20
2019-05-17T02:56:03.221Z,36.50
2019-05-17T02:58:52.991Z,36.30
2019-05-17T03:01:38.964Z,36.60
2019-05-17T03:04:25.668Z,36.60
2019-05-17T03:07:13.522Z,36.60
2019-05-17T03:10:16.509Z,36.70
2019-05-17T03:12:48.043Z,36.80
2019-05-17T03:15:34.413Z,36.80
2019-05-17T03:18:22.871Z,36.90
2019-05-17T03:21:08.808Z,37.00
2019-05-17T03:23:55.133Z,36.80
2019-05-17T03:26:43.069Z,36.90
2019-05-17T03:29:29.748Z,36.90
2019-05-17T03:32:17.719Z,36.80
2019-05-17T03:35:06.738Z,36.70
2019-05-17T03:37:53.417Z,36.70
2019-05-17T03:41:03.404Z,37.30
2019-05-17T03:43:27.833Z,37.40
2019-05-17T03:46:14.383Z,36.70
2019-05-17T03:49:03.520Z,37.10
2019-05-17T03:51:48.479Z,37.00
2019-05-17T03:54:34.735Z,37.50
2019-05-17T03:57:23.880Z,36.90
2019-05-17T04:00:09.580Z,37.60
2019-05-17T04:02:56.051Z,37.30
2019-05-17T04:05:43.061Z,37.30
2019-05-17T04:08:29.373Z,37.20
2019-05-17T04:11:25.829Z,37.10
2019-05-17T04:14:03.919Z,37.10
2019-05-17T04:16:53.355Z,37.30
2019-05-17T04:19:38.312Z,37.10
2019-05-17T04:22:24.993Z,36.90
2019-05-17T04:25:13.412Z,37.40
2019-05-17T04:28:02.627Z,37.20
2019-05-17T04:30:48.084Z,37.30
2019-05-17T04:33:34.691Z,37.40
2019-05-17T04:36:22.420Z,37.10
2019-05-17T04:39:09.000Z,37.20
2019-05-17T04:41:55.500Z,37.80
2019-05-17T04:44:43.116Z,37.80
2019-05-17T04:47:32.942Z,37.20
2019-05-17T04:50:17.987Z,37.60
2019-05-17T04:53:04.426Z,38.00
2019-05-17T04:55:54.092Z,37.70
2019-05-17T04:58:38.793Z,37.80
2019-05-17T05:01:25.609Z,38.60
2019-05-17T05:04:15.089Z,38.10
2019-05-17T05:07:02.894Z,38.00
2019-05-17T05:09:47.655Z,37.90
2019-05-17T05:12:34.075Z,37.80
2019-05-17T05:15:37.108Z,37.90
2019-05-17T05:18:23.595Z,37.70
2019-05-17T05:21:12.380Z,38.00
2019-05-17T05:23:58.764Z,37.90
2019-05-17T05:26:44.976Z,37.70
2019-05-17T05:29:32.190Z,38.10
2019-05-17T05:32:18.932Z,38.60
2019-05-17T05:35:05.580Z,38.30
2019-05-17T05:37:52.603Z,38.00
2019-05-17T05:40:41.327Z,38.30
2019-05-17T05:43:26.947Z,38.00
2019-05-17T05:46:13.620Z,38.10
2019-05-17T05:49:01.752Z,38.30
2019-05-17T05:51:47.884Z,38.10
2019-05-17T05:54:34.265Z,38.00
2019-05-17T05:57:21.867Z,38.30
2019-05-17T06:00:12.462Z,38.20
2019-05-17T06:02:57.717Z,38.20
2019-05-17T06:05:44.123Z,38.20
2019-05-17T06:08:32.173Z,38.20
2019-05-17T06:11:18.212Z,38.30
2019-05-17T06:14:04.719Z,38.10
2019-05-17T06:16:52.011Z,38.10
2019-05-17T06:19:38.283Z,38.00
2019-05-17T06:22:24.759Z,38.80
2019-05-17T06:25:15.193Z,38.30
2019-05-17T06:28:01.419Z,38.20
2019-05-17T06:30:47.208Z,38.40
2019-05-17T06:33:34.839Z,38.50
2019-05-17T06:36:21.764Z,38.50
2019-05-17T06:39:08.268Z,39.10
2019-05-17T06:41:54.809Z,38.50
2019-05-17T06:44:41.761Z,49.30
2019-05-17T06:47:28.416Z,48.40
2019-05-17T06:50:14.859Z,48.30
2019-05-17T06:53:03.222Z,49.00
2019-05-17T06:55:49.247Z,45.40
2019-05-17T06:58:35.752Z,44.00
2019-05-17T07:01:22.084Z,43.30
2019-05-17T07:04:10.226Z,42.80
2019-05-17T07:07:15.022Z,42.50
2019-05-17T07:10:01.430Z,42.10
2019-05-17T07:12:57.001Z,42.00
2019-05-17T07:15:44.724Z,41.80
2019-05-17T07:18:24.584Z,41.60
2019-05-17T07:21:11.007Z,41.40
2019-05-17T07:23:59.266Z,41.30
2019-05-17T07:26:45.451Z,41.30
2019-05-17T07:29:31.667Z,41.30
2019-05-17T07:32:19.401Z,41.60
2019-05-17T07:35:06.336Z,42.50
2019-05-17T07:37:53.740Z,43.50
2019-05-17T07:40:40.156Z,43.10
2019-05-17T07:43:29.624Z,43.40
2019-05-17T07:46:15.699Z,43.50
2019-05-17T07:49:02.119Z,43.40
2019-05-17T07:51:50.253Z,43.40
2019-05-17T07:54:36.565Z,43.30
2019-05-17T07:57:23.004Z,43.30
2019-05-17T08:00:10.394Z,43.20
2019-05-17T08:02:56.899Z,43.00
2019-05-17T08:05:43.368Z,43.00
2019-05-17T08:08:30.875Z,42.40
2019-05-17T08:11:19.681Z,42.70
2019-05-17T08:14:05.792Z,42.70
2019-05-17T08:16:52.178Z,42.50
2019-05-17T08:19:40.285Z,42.30
2019-05-17T08:22:26.679Z,42.20
2019-05-17T08:25:13.568Z,42.10
2019-05-17T08:27:59.955Z,41.70
2019-05-17T08:30:46.384Z,41.40
2019-05-17T08:33:32.735Z,41.50
2019-05-17T08:36:20.111Z,41.70
2019-05-17T08:39:06.975Z,41.10
2019-05-17T08:41:53.369Z,41.20
2019-05-17T08:44:39.816Z,41.30
2019-05-17T08:47:26.191Z,41.20
2019-05-17T08:50:12.716Z,41.00
2019-05-17T08:52:59.985Z,40.90
2019-05-17T08:55:46.567Z,40.90
2019-05-17T08:58:32.843Z,40.90
2019-05-17T09:01:19.560Z,40.80
2019-05-17T09:04:06.363Z,40.90
2019-05-17T09:06:52.865Z,40.70
2019-05-17T09:09:39.434Z,40.80
2019-05-17T09:12:26.364Z,40.60
2019-05-17T09:15:12.612Z,40.60
2019-05-17T09:18:00.289Z,40.60
2019-05-17T09:20:49.325Z,40.50
2019-05-17T09:23:35.019Z,40.50
2019-05-17T09:26:21.372Z,40.40
2019-05-17T09:29:08.001Z,40.30
2019-05-17T09:31:54.263Z,40.40
2019-05-17T09:34:40.625Z,40.40
2019-05-17T09:37:30.178Z,40.40
2019-05-17T09:40:15.023Z,40.30
2019-05-17T09:43:02.326Z,40.30
2019-05-17T09:45:50.843Z,40.30
2019-05-17T09:48:39.492Z,40.30
2019-05-17T09:51:24.936Z,40.30
2019-05-17T09:54:11.159Z,40.20
2019-05-17T09:57:00.271Z,40.20
2019-05-17T09:59:45.556Z,40.10
2019-05-17T10:02:32.032Z,40.20
2019-05-17T10:05:20.212Z,40.00
2019-05-17T10:08:07.083Z,40.20
2019-05-17T10:11:04.800Z,40.20
2019-05-17T10:13:41.533Z,40.60
2019-05-17T10:16:27.749Z,40.10
2019-05-17T10:19:14.039Z,40.20
2019-05-17T10:22:00.249Z,40.20
2019-05-17T10:24:46.684Z,40.10
2019-05-17T10:27:32.499Z,40.00
2019-05-17T10:30:20.993Z,40.20
2019-05-17T10:33:09.567Z,40.30
2019-05-17T10:35:54.758Z,40.20
2019-05-17T10:38:41.195Z,40.10
2019-05-17T10:41:29.965Z,40.10
2019-05-17T10:44:15.321Z,40.20
2019-05-17T10:47:02.054Z,40.10
2019-05-17T10:49:49.717Z,40.20
2019-05-17T10:52:36.339Z,40.30
2019-05-17T10:55:22.651Z,40.20
2019-05-17T10:58:09.931Z,40.20
2019-05-17T11:00:57.024Z,40.30
2019-05-17T11:03:43.569Z,40.30
2019-05-17T11:06:30.314Z,40.40
2019-05-17T11:09:16.868Z,40.30
2019-05-17T11:12:03.343Z,40.40
2019-05-17T11:15:01.049Z,40.40
2019-05-17T11:17:37.723Z,40.30
2019-05-17T11:20:24.129Z,40.50
2019-05-17T11:23:10.564Z,40.40
2019-05-17T11:25:56.912Z,40.40
2019-05-17T11:28:43.215Z,40.50
2019-05-17T11:31:29.862Z,40.50
2019-05-17T11:34:16.084Z,40.50
2019-05-17T11:37:02.600Z,40.50
2019-05-17T11:39:49.078Z,40.50
2019-05-17T11:42:35.571Z,40.50
2019-05-17T11:45:28.131Z,40.60
2019-05-17T11:48:10.430Z,40.60
2019-05-17T11:50:56.817Z,41.00
2019-05-17T11:53:43.384Z,40.60
2019-05-17T11:56:29.915Z,40.70
2019-05-17T11:59:16.391Z,40.60
2019-05-17T12:02:02.740Z,40.70
2019-05-17T12:04:51.610Z,40.80
2019-05-17T12:07:37.643Z,40.80
2019-05-17T12:10:24.102Z,40.80
2019-05-17T12:13:10.460Z,40.80
2019-05-17T12:15:57.049Z,40.80
2019-05-17T12:18:43.275Z,40.70
2019-05-17T12:21:29.888Z,40.80
2019-05-17T12:24:16.198Z,40.80
2019-05-17T12:27:02.582Z,40.80
2019-05-17T12:29:48.892Z,40.80
2019-05-17T12:32:37.820Z,40.70
2019-05-17T12:35:23.883Z,40.80
2019-05-17T12:38:10.743Z,40.80
2019-05-17T12:40:56.976Z,40.80
2019-05-17T12:43:43.601Z,40.80
2019-05-17T12:46:30.240Z,40.70
2019-05-17T12:49:16.786Z,40.80
2019-05-17T12:52:03.102Z,40.90
2019-05-17T12:54:49.681Z,40.90
2019-05-17T12:57:35.945Z,41.20
2019-05-17T13:00:22.562Z,40.80
2019-05-17T13:03:09.064Z,40.80
2019-05-17T13:05:55.800Z,41.00
2019-05-17T13:08:42.356Z,40.80
2019-05-17T13:11:28.865Z,40.90
2019-05-17T13:14:15.092Z,40.90
2019-05-17T13:17:01.267Z,40.80
2019-05-17T13:19:49.817Z,40.80
2019-05-17T13:22:38.802Z,40.80
2019-05-17T13:25:27.880Z,40.90
2019-05-17T13:28:15.576Z,40.80
2019-05-17T13:31:01.852Z,40.80
2019-05-17T13:33:48.188Z,40.80
2019-05-17T13:36:37.288Z,40.90
2019-05-17T13:39:24.004Z,40.90
2019-05-17T13:42:14.090Z,40.90
2019-05-17T13:45:00.442Z,40.80
2019-05-17T13:47:52.660Z,40.80
2019-05-17T13:50:38.917Z,40.90
2019-05-17T13:53:25.371Z,40.80
2019-05-17T13:56:11.795Z,40.90
2019-05-17T13:58:58.151Z,40.90
2019-05-17T14:01:44.783Z,40.90
2019-05-17T14:04:33.552Z,40.90
2019-05-17T14:07:25.686Z,40.80
2019-05-17T14:10:26.342Z,40.90
2019-05-17T14:12:59.972Z,40.90
2019-05-17T14:15:46.160Z,40.90
2019-05-17T14:18:32.615Z,40.80
2019-05-17T14:21:18.936Z,40.80
2019-05-17T14:24:04.915Z,40.90
2019-05-17T14:26:51.219Z,41.00
2019-05-17T14:29:37.826Z,40.80
2019-05-17T14:32:24.144Z,40.80
2019-05-17T14:35:11.540Z,40.80
2019-05-17T14:37:57.579Z,40.80
2019-05-17T14:41:05.804Z,41.10
2019-05-17T14:43:32.304Z,40.90
2019-05-17T14:46:18.809Z,40.90
2019-05-17T14:49:05.165Z,40.80
2019-05-17T14:51:52.568Z,40.90
2019-05-17T14:54:38.920Z,40.90
2019-05-17T14:57:25.168Z,41.10
2019-05-17T15:00:12.316Z,41.10
2019-05-17T15:03:00.104Z,41.10
2019-05-17T15:05:47.466Z,41.20
2019-05-17T15:08:33.733Z,41.20
2019-05-17T15:11:19.669Z,41.30
2019-05-17T15:14:06.077Z,41.60
2019-05-17T15:16:52.486Z,41.70
2019-05-17T15:19:39.069Z,41.70
2019-05-17T15:22:25.368Z,41.90
2019-05-17T15:25:13.656Z,41.60
2019-05-17T15:27:59.857Z,41.60
2019-05-17T15:30:46.301Z,41.70
2019-05-17T15:33:34.071Z,41.50
2019-05-17T15:36:21.477Z,41.60
2019-05-17T15:39:07.888Z,41.70
2019-05-17T15:41:53.851Z,41.70
2019-05-17T15:44:40.322Z,41.70
2019-05-17T15:47:27.220Z,41.70
2019-05-17T15:50:15.464Z,42.10
2019-05-17T15:53:02.919Z,42.00
2019-05-17T15:55:51.136Z,42.10
2019-05-17T15:58:37.681Z,42.00
2019-05-17T16:01:25.516Z,41.80
2019-05-17T16:04:14.931Z,41.80
2019-05-17T16:07:01.413Z,41.70
2019-05-17T16:09:48.772Z,41.80
2019-05-17T16:12:34.765Z,41.80
2019-05-17T16:15:21.149Z,41.90
2019-05-17T16:18:07.380Z,42.00
2019-05-17T16:20:59.829Z,41.90
2019-05-17T16:23:46.928Z,41.90
2019-05-17T16:26:33.483Z,42.70
2019-05-17T16:29:19.850Z,42.90
2019-05-17T16:32:06.258Z,43.30
2019-05-17T16:34:52.922Z,43.60
2019-05-17T16:37:39.275Z,44.00
2019-05-17T16:40:25.524Z,44.50
2019-05-17T16:43:17.989Z,44.80
2019-05-17T16:46:00.550Z,44.70
2019-05-17T16:48:47.051Z,44.60
2019-05-17T16:51:33.427Z,44.60
2019-05-17T16:54:19.827Z,44.60
2019-05-17T16:57:06.187Z,44.60
2019-05-17T16:59:52.747Z,44.50
2019-05-17T17:02:39.056Z,44.50
2019-05-17T17:05:25.459Z,44.50
2019-05-17T17:08:11.936Z,44.50
2019-05-17T17:10:58.235Z,44.50
2019-05-17T17:13:44.017Z,44.70
2019-05-17T17:16:30.608Z,45.00
2019-05-17T17:19:16.800Z,45.00
2019-05-17T17:22:03.359Z,45.20
2019-05-17T17:24:49.814Z,45.90
2019-05-17T17:27:36.447Z,46.20
2019-05-17T17:30:23.008Z,46.70
2019-05-17T17:33:08.995Z,46.80
2019-05-17T17:35:55.266Z,46.80
2019-05-17T17:38:41.795Z,47.30
2019-05-17T17:41:31.133Z,47.40
2019-05-17T17:44:17.583Z,47.80
2019-05-17T17:47:03.961Z,47.80
2019-05-17T17:49:50.591Z,47.80
2019-05-17T17:52:38.415Z,47.90
2019-05-17T17:55:27.916Z,48.30
2019-05-17T17:58:14.529Z,48.10
2019-05-17T18:01:00.929Z,48.10
2019-05-17T18:03:52.238Z,47.80
2019-05-17T18:06:38.544Z,47.90
2019-05-17T18:09:24.944Z,47.60
2019-05-17T18:12:11.367Z,47.40
2019-05-17T18:14:57.260Z,47.10
2019-05-17T18:17:44.064Z,47.00
2019-05-17T18:20:30.243Z,47.10
2019-05-17T18:23:20.937Z,46.90
2019-05-17T18:26:04.805Z,46.90
2019-05-17T18:28:51.028Z,46.60
2019-05-17T18:31:37.323Z,46.70
2019-05-17T18:34:23.888Z,46.50
2019-05-17T18:37:10.213Z,46.40
2019-05-17T18:39:56.684Z,46.40
2019-05-17T18:42:45.468Z,46.30
2019-05-17T18:45:31.599Z,45.90
2019-05-17T18:48:18.057Z,45.90
2019-05-17T18:51:04.546Z,45.60
2019-05-17T18:53:51.603Z,45.60
2019-05-17T18:56:37.759Z,45.70
2019-05-17T18:59:24.132Z,46.00
2019-05-17T19:02:10.656Z,46.10
2019-05-17T19:04:56.959Z,45.90
2019-05-17T19:07:43.320Z,46.10
2019-05-17T19:10:29.590Z,46.10
2019-05-17T19:13:16.114Z,46.10
2019-05-17T19:16:02.715Z,46.20
2019-05-17T19:18:56.366Z,46.10
2019-05-17T19:21:42.503Z,45.90
2019-05-17T19:24:29.079Z,45.80
2019-05-17T19:27:15.330Z,45.70
2019-05-17T19:30:02.003Z,46.10
2019-05-17T19:32:48.314Z,45.60
2019-05-17T19:35:34.981Z,45.60
2019-05-17T19:38:21.361Z,45.60
2019-05-17T19:41:07.950Z,45.40
2019-05-17T19:43:54.937Z,45.50
2019-05-17T19:46:44.994Z,45.50
2019-05-17T19:49:31.335Z,45.70
2019-05-17T19:52:17.824Z,45.40
2019-05-17T19:55:04.814Z,45.20
2019-05-17T19:57:51.593Z,45.20
2019-05-17T20:00:37.829Z,44.90
2019-05-17T20:03:24.589Z,45.10
2019-05-17T20:06:10.941Z,44.70
2019-05-17T20:08:57.652Z,44.80
2019-05-17T20:11:44.046Z,44.80
2019-05-17T20:14:34.322Z,44.50
2019-05-17T20:17:21.015Z,44.50
2019-05-17T20:20:08.069Z,44.40
2019-05-17T20:22:54.335Z,44.50
2019-05-17T20:25:40.707Z,44.60
2019-05-17T20:28:28.209Z,44.70
2019-05-17T20:31:14.676Z,44.60
2019-05-17T20:34:01.046Z,44.80
2019-05-17T20:36:47.654Z,44.60
2019-05-17T20:39:36.933Z,44.90
2019-05-17T20:42:23.278Z,45.00
2019-05-17T20:45:10.439Z,45.10
2019-05-17T20:47:56.515Z,44.90
2019-05-17T20:50:42.917Z,44.90
2019-05-17T20:53:29.520Z,45.20
2019-05-17T20:56:15.826Z,45.20
2019-05-17T20:59:02.983Z,45.40
2019-05-17T21:01:49.097Z,45.70
2019-05-17T21:04:35.476Z,45.70
2019-05-17T21:07:21.776Z,45.70
2019-05-17T21:10:08.521Z,45.80
2019-05-17T21:12:54.618Z,45.70
2019-05-17T21:15:47.779Z,46.00
2019-05-17T21:18:29.224Z,46.00
2019-05-17T21:21:15.701Z,45.90
2019-05-17T21:24:02.043Z,45.90
2019-05-17T21:26:48.530Z,45.90
2019-05-17T21:29:34.795Z,46.10
2019-05-17T21:32:21.224Z,46.30
2019-05-17T21:35:07.671Z,46.70
2019-05-17T21:37:54.164Z,46.80
2019-05-17T21:40:42.187Z,47.00
2019-05-17T21:43:28.584Z,47.10
2019-05-17T21:46:14.948Z,47.30
2019-05-17T21:49:00.931Z,47.40
2019-05-17T21:51:47.518Z,47.60
2019-05-17T21:54:33.911Z,47.70
2019-05-17T21:57:20.248Z,47.80
2019-05-17T22:00:11.452Z,48.40
2019-05-17T22:02:59.418Z,48.00
2019-05-17T22:05:45.801Z,48.00
2019-05-17T22:08:32.121Z,48.00
2019-05-17T22:11:19.867Z,48.10
2019-05-17T22:14:06.265Z,48.00
2019-05-17T22:16:52.685Z,48.30
2019-05-17T22:19:39.372Z,48.20
2019-05-17T22:22:25.799Z,48.60
2019-05-17T22:25:12.148Z,48.70
2019-05-17T22:27:59.269Z,49.30
2019-05-17T22:30:45.658Z,48.60
2019-05-17T22:33:32.028Z,47.70
2019-05-17T22:36:18.523Z,48.10
2019-05-17T22:39:05.887Z,48.20
2019-05-17T22:41:52.127Z,47.90
2019-05-17T22:44:38.765Z,47.90
2019-05-17T22:47:25.101Z,48.30
2019-05-17T22:50:11.547Z,48.10
2019-05-17T22:52:58.136Z,48.20
2019-05-17T22:55:44.484Z,47.50
2019-05-17T22:58:30.827Z,48.00
2019-05-17T23:01:17.432Z,47.50
2019-05-17T23:04:03.771Z,47.60
2019-05-17T23:06:49.755Z,47.70
2019-05-17T23:09:36.041Z,47.80
2019-05-17T23:12:22.689Z,48.00
2019-05-17T23:15:10.576Z,48.30
2019-05-17T23:17:57.187Z,47.90
2019-05-17T23:20:43.279Z,47.90
2019-05-17T23:23:29.420Z,48.30
2019-05-17T23:26:15.651Z,47.80
2019-05-17T23:29:02.042Z,47.70
2019-05-17T23:31:48.436Z,47.80
2019-05-17T23:34:34.827Z,47.80
2019-05-17T23:37:21.100Z,47.70
2019-05-17T23:40:08.168Z,47.70
2019-05-17T23:42:54.212Z,47.70
2019-05-17T23:45:40.713Z,47.50
2019-05-17T23:48:27.168Z,47.60
2019-05-17T23:51:13.547Z,47.40
2019-05-17T23:53:59.879Z,47.20
2019-05-17T23:56:45.975Z,47.10
2019-05-17T23:59:32.319Z,47.30
